createdAt,value
2019-02-23T00:00:53.927Z,7.33
2019-02-23T00:02:59.282Z,7.27
2019-02-23T00:05:04.542Z,7.77
2019-02-23T00:07:09.691Z,7.80
2019-02-23T00:09:14.644Z,8.23
2019-02-23T00:11:19.545Z,7.73
2019-02-23T00:13:25.241Z,8.30
2019-02-23T00:15:30.302Z,6.97
2019-02-23T00:17:35.976Z,8.20
2019-02-23T00:19:40.987Z,7.83
2019-02-23T00:21:46.393Z,7.17
2019-02-23T00:23:51.293Z,8.10
2019-02-23T00:25:56.285Z,7.90
2019-02-23T00:28:01.460Z,7.00
2019-02-23T00:30:07.307Z,7.43
2019-02-23T00:32:12.521Z,7.33
2019-02-23T00:34:17.898Z,6.93
2019-02-23T00:36:23.177Z,7.20
2019-02-23T00:38:28.540Z,7.47
2019-02-23T00:40:33.599Z,6.93
2019-02-23T00:42:38.934Z,7.47
2019-02-23T00:44:43.862Z,7.10
2019-02-23T00:46:49.460Z,6.97
2019-02-23T00:48:55.014Z,6.93
2019-02-23T00:50:59.975Z,6.83
2019-02-23T00:53:05.190Z,7.57
2019-02-23T00:55:10.585Z,7.67
2019-02-23T00:57:16.048Z,7.80
2019-02-23T00:59:21.290Z,6.73
2019-02-23T01:01:26.295Z,6.97
2019-02-23T01:03:31.365Z,7.60
2019-02-23T01:05:36.602Z,7.23
2019-02-23T01:07:41.706Z,7.77
2019-02-23T01:09:46.695Z,7.50
2019-02-23T01:11:51.651Z,7.97
2019-02-23T01:13:56.945Z,7.20
2019-02-23T01:16:02.112Z,6.93
2019-02-23T01:18:07.505Z,7.00
2019-02-23T01:20:12.828Z,6.77
2019-02-23T01:22:18.164Z,6.47
2019-02-23T01:24:23.946Z,6.40
2019-02-23T01:26:29.307Z,6.40
2019-02-23T01:28:34.382Z,7.13
2019-02-23T01:30:39.903Z,6.17
2019-02-23T01:32:44.995Z,6.50
2019-02-23T01:34:50.720Z,7.10
2019-02-23T01:36:55.984Z,7.43
2019-02-23T01:39:01.054Z,7.10
2019-02-23T01:41:06.179Z,6.97
2019-02-23T01:43:11.151Z,7.37
2019-02-23T01:45:16.855Z,7.00
2019-02-23T01:47:22.164Z,6.70
2019-02-23T01:49:27.538Z,7.60
2019-02-23T01:51:32.634Z,6.23
2019-02-23T01:53:37.635Z,6.03
2019-02-23T01:55:42.705Z,6.43
2019-02-23T01:57:48.032Z,6.00
2019-02-23T01:59:53.015Z,6.80
2019-02-23T02:02:07.299Z,6.73
2019-02-23T02:04:13.604Z,6.60
2019-02-23T02:06:23.732Z,7.23
2019-02-23T02:08:31.568Z,7.30
2019-02-23T02:10:36.503Z,6.40
2019-02-23T02:12:41.633Z,6.73
2019-02-23T02:14:46.862Z,6.73
2019-02-23T02:18:54.219Z,7.50
2019-02-23T02:20:59.341Z,7.33
2019-02-23T02:23:04.597Z,7.20
2019-02-23T02:25:09.752Z,6.90
2019-02-23T02:27:14.848Z,6.53
2019-02-23T02:29:19.761Z,7.07
2019-02-23T02:31:24.898Z,6.70
2019-02-23T02:33:29.952Z,6.77
2019-02-23T02:35:35.032Z,6.67
2019-02-23T02:37:40.271Z,6.60
2019-02-23T02:39:45.960Z,6.33
2019-02-23T02:41:51.217Z,6.93
2019-02-23T02:43:56.758Z,6.13
2019-02-23T02:46:01.718Z,6.40
2019-02-23T02:48:06.801Z,5.83
2019-02-23T02:50:23.999Z,6.03
2019-02-23T02:52:19.830Z,6.73
2019-02-23T02:54:25.093Z,6.40
2019-02-23T02:56:30.077Z,6.27
2019-02-23T02:58:35.678Z,6.07
2019-02-23T03:00:42.893Z,5.87
2019-02-23T03:02:49.505Z,5.90
2019-02-23T03:04:54.836Z,6.00
2019-02-23T03:07:00.046Z,6.10
2019-02-23T03:09:08.211Z,6.13
2019-02-23T03:11:13.283Z,5.97
2019-02-23T03:13:18.269Z,5.70
2019-02-23T03:15:23.266Z,5.60
2019-02-23T03:17:28.835Z,5.80
2019-02-23T03:19:34.189Z,5.87
2019-02-23T03:21:39.548Z,6.37
2019-02-23T03:23:44.566Z,5.30
2019-02-23T03:25:49.561Z,6.03
2019-02-23T03:27:54.550Z,5.90
2019-02-23T03:29:59.520Z,5.63
2019-02-23T03:32:04.908Z,6.07
2019-02-23T03:34:09.960Z,6.20
2019-02-23T03:36:15.002Z,6.13
2019-02-23T03:38:19.956Z,5.93
2019-02-23T03:40:25.134Z,5.63
2019-02-23T03:42:30.560Z,6.03
2019-02-23T03:44:35.746Z,6.00
2019-02-23T03:46:41.011Z,6.37
2019-02-23T03:48:46.064Z,5.80
2019-02-23T03:50:51.050Z,5.53
2019-02-23T03:52:56.135Z,5.23
2019-02-23T03:55:01.510Z,5.43
2019-02-23T03:57:06.480Z,7.00
2019-02-23T03:59:11.805Z,5.97
2019-02-23T04:01:17.148Z,5.67
2019-02-23T04:03:22.710Z,6.13
2019-02-23T04:05:27.866Z,5.17
2019-02-23T04:07:32.787Z,5.33
2019-02-23T04:09:38.180Z,5.63
2019-02-23T04:11:43.247Z,6.13
2019-02-23T04:13:48.564Z,5.53
2019-02-23T04:15:53.635Z,5.07
2019-02-23T04:17:58.890Z,6.60
2019-02-23T04:20:04.019Z,5.53
2019-02-23T04:22:09.502Z,5.80
2019-02-23T04:24:14.482Z,5.33
2019-02-23T04:26:19.397Z,5.97
2019-02-23T04:28:24.667Z,5.80
2019-02-23T04:30:29.736Z,6.17
2019-02-23T04:32:34.964Z,5.77
2019-02-23T04:34:39.951Z,5.90
2019-02-23T04:36:44.945Z,6.00
2019-02-23T04:38:49.938Z,6.63
2019-02-23T04:40:55.948Z,6.20
2019-02-23T04:43:01.267Z,5.83
2019-02-23T04:45:07.204Z,6.57
2019-02-23T04:47:12.389Z,5.70
2019-02-23T04:49:17.622Z,6.40
2019-02-23T04:51:22.542Z,5.77
2019-02-23T04:53:28.119Z,5.63
2019-02-23T04:55:33.046Z,6.00
2019-02-23T04:57:37.964Z,6.13
2019-02-23T04:59:43.189Z,6.10
2019-02-23T05:01:48.083Z,5.50
2019-02-23T05:03:53.116Z,6.27
2019-02-23T05:05:58.436Z,6.00
2019-02-23T05:08:03.424Z,6.17
2019-02-23T05:10:08.969Z,5.20
2019-02-23T05:12:14.450Z,5.33
2019-02-23T05:14:19.375Z,5.43
2019-02-23T05:16:24.737Z,5.37
2019-02-23T05:18:29.726Z,5.10
2019-02-23T05:20:34.715Z,5.43
2019-02-23T05:22:39.800Z,5.50
2019-02-23T05:24:45.034Z,5.67
2019-02-23T05:26:50.083Z,5.47
2019-02-23T05:28:55.457Z,5.77
2019-02-23T05:31:00.648Z,5.73
2019-02-23T05:33:05.735Z,5.97
2019-02-23T05:35:11.824Z,5.87
2019-02-23T05:37:16.989Z,6.37
2019-02-23T05:39:22.309Z,6.00
2019-02-23T05:41:27.624Z,5.83
2019-02-23T05:43:32.553Z,5.80
2019-02-23T05:45:38.295Z,6.43
2019-02-23T05:47:43.285Z,5.03
2019-02-23T05:49:48.190Z,5.70
2019-02-23T05:51:53.158Z,5.77
2019-02-23T05:53:58.329Z,6.00
2019-02-23T05:56:03.649Z,5.73
2019-02-23T05:58:08.905Z,5.90
2019-02-23T06:00:14.683Z,6.50
2019-02-23T06:02:19.744Z,5.93
2019-02-23T06:04:25.085Z,6.30
2019-02-23T06:06:30.007Z,6.20
2019-02-23T06:08:34.945Z,5.77
2019-02-23T06:10:40.337Z,6.37
2019-02-23T06:12:45.970Z,5.40
2019-02-23T06:14:51.168Z,5.73
2019-02-23T06:16:56.512Z,5.50
2019-02-23T06:19:01.879Z,5.97
2019-02-23T06:21:07.303Z,6.57
2019-02-23T06:23:12.309Z,5.90
2019-02-23T06:25:17.349Z,6.50
2019-02-23T06:27:22.502Z,6.50
2019-02-23T06:29:27.517Z,6.70
2019-02-23T06:31:33.101Z,6.30
2019-02-23T06:33:38.569Z,6.53
2019-02-23T06:35:43.641Z,7.37
2019-02-23T06:37:49.092Z,6.47
2019-02-23T06:39:54.232Z,6.60
2019-02-23T06:41:59.719Z,6.77
2019-02-23T06:44:05.247Z,5.73
2019-02-23T06:46:10.831Z,6.40
2019-02-23T06:48:16.176Z,6.33
2019-02-23T06:50:21.320Z,6.40
2019-02-23T06:52:26.414Z,6.57
2019-02-23T06:54:31.656Z,7.40
2019-02-23T06:56:36.715Z,7.30
2019-02-23T06:58:41.676Z,6.53
2019-02-23T07:00:47.183Z,6.90
2019-02-23T07:02:52.481Z,6.57
2019-02-23T07:04:57.507Z,6.83
2019-02-23T07:07:02.500Z,7.17
2019-02-23T07:09:09.217Z,6.67
2019-02-23T07:11:17.438Z,6.97
2019-02-23T07:13:24.683Z,6.43
2019-02-23T07:15:29.880Z,6.57
2019-02-23T07:17:34.984Z,7.03
2019-02-23T07:19:40.112Z,7.57
2019-02-23T07:21:45.074Z,6.87
2019-02-23T07:23:50.064Z,6.50
2019-02-23T07:25:55.303Z,6.57
2019-02-23T07:28:00.285Z,6.83
2019-02-23T07:30:06.345Z,7.50
2019-02-23T07:32:11.270Z,6.90
2019-02-23T07:34:16.714Z,7.27
2019-02-23T07:36:21.628Z,7.60
2019-02-23T07:38:27.516Z,7.50
2019-02-23T07:40:33.307Z,7.57
2019-02-23T07:42:38.360Z,8.33
2019-02-23T07:44:43.339Z,6.87
2019-02-23T07:46:49.343Z,7.50
2019-02-23T07:48:54.627Z,7.90
2019-02-23T07:50:59.889Z,7.43
2019-02-23T07:53:04.857Z,8.03
2019-02-23T07:55:10.654Z,6.57
2019-02-23T07:57:16.066Z,7.60
2019-02-23T07:59:21.621Z,7.43
2019-02-23T08:01:26.941Z,7.57
2019-02-23T08:03:32.342Z,7.83
2019-02-23T08:05:37.342Z,7.70
2019-02-23T08:07:42.402Z,8.07
2019-02-23T08:09:47.582Z,8.17
2019-02-23T08:11:52.787Z,8.30
2019-02-23T08:13:58.861Z,9.13
2019-02-23T08:16:03.937Z,9.17
2019-02-23T08:18:08.928Z,9.53
2019-02-23T08:20:14.101Z,9.17
2019-02-23T08:22:19.217Z,9.37
2019-02-23T08:24:24.580Z,10.23
2019-02-23T08:26:29.617Z,11.13
2019-02-23T08:28:34.992Z,10.93
2019-02-23T08:30:40.518Z,10.77
2019-02-23T08:32:45.639Z,10.43
2019-02-23T08:34:52.159Z,10.33
2019-02-23T08:36:57.436Z,10.50
2019-02-23T08:39:02.351Z,11.07
2019-02-23T08:41:07.287Z,10.20
2019-02-23T08:43:12.546Z,11.03
2019-02-23T08:45:17.952Z,10.30
2019-02-23T08:47:23.018Z,10.00
2019-02-23T08:49:27.951Z,9.53
2019-02-23T08:51:32.967Z,8.60
2019-02-23T08:53:38.151Z,8.43
2019-02-23T08:55:43.150Z,8.47
2019-02-23T08:57:48.597Z,8.33
2019-02-23T08:59:54.102Z,8.40
2019-02-23T09:01:59.480Z,8.40
2019-02-23T09:04:04.731Z,7.77
2019-02-23T09:06:09.830Z,7.83
2019-02-23T09:08:15.355Z,8.13
2019-02-23T09:10:21.016Z,9.23
2019-02-23T09:12:26.497Z,8.20
2019-02-23T09:14:31.563Z,7.70
2019-02-23T09:16:36.815Z,8.27
2019-02-23T09:18:42.004Z,8.47
2019-02-23T09:20:47.270Z,7.70
2019-02-23T09:22:59.829Z,8.03
2019-02-23T09:24:59.154Z,8.00
2019-02-23T09:27:04.693Z,7.33
2019-02-23T09:29:10.016Z,7.53
2019-02-23T09:31:15.057Z,7.37
2019-02-23T09:33:20.386Z,7.80
2019-02-23T09:35:25.748Z,7.80
2019-02-23T09:37:30.964Z,7.73
2019-02-23T09:39:36.325Z,7.33
2019-02-23T09:41:41.586Z,7.50
2019-02-23T09:43:46.883Z,6.70
2019-02-23T09:45:52.076Z,6.73
2019-02-23T09:47:57.067Z,7.63
2019-02-23T09:50:02.023Z,6.53
2019-02-23T09:52:07.110Z,7.00
2019-02-23T09:54:12.032Z,7.20
2019-02-23T09:56:17.047Z,6.67
2019-02-23T09:58:22.339Z,6.97
2019-02-23T10:00:27.967Z,6.67
2019-02-23T10:02:33.502Z,6.07
2019-02-23T10:04:39.394Z,7.60
2019-02-23T10:06:44.863Z,6.20
2019-02-23T10:08:49.850Z,6.63
2019-02-23T10:10:57.573Z,6.17
2019-02-23T10:13:02.553Z,6.03
2019-02-23T10:15:08.320Z,6.20
2019-02-23T10:17:13.972Z,5.87
2019-02-23T10:19:19.196Z,6.17
2019-02-23T10:21:24.620Z,5.60
2019-02-23T10:23:29.673Z,4.53
2019-02-23T10:25:35.020Z,5.17
2019-02-23T10:27:40.793Z,4.47
2019-02-23T10:29:45.753Z,4.80
2019-02-23T10:31:50.751Z,4.23
2019-02-23T10:33:55.963Z,3.80
2019-02-23T10:36:00.976Z,3.87
2019-02-23T10:38:07.094Z,3.60
2019-02-23T10:40:12.540Z,3.37
2019-02-23T10:42:17.644Z,3.47
2019-02-23T10:44:22.898Z,2.90
2019-02-23T10:46:28.327Z,3.70
2019-02-23T10:48:33.595Z,2.13
2019-02-23T10:50:38.646Z,2.50
2019-02-23T10:52:43.880Z,3.00
2019-02-23T10:54:49.624Z,2.50
2019-02-23T10:56:55.359Z,2.57
2019-02-23T10:59:00.681Z,2.20
2019-02-23T11:01:07.126Z,2.40
2019-02-23T11:03:12.694Z,2.10
2019-02-23T11:05:18.076Z,2.50
2019-02-23T11:07:23.921Z,2.57
2019-02-23T11:09:32.598Z,2.50
2019-02-23T11:11:38.432Z,2.33
2019-02-23T11:13:43.731Z,2.70
2019-02-23T11:15:49.159Z,2.33
2019-02-23T11:17:54.492Z,2.00
2019-02-23T11:20:00.373Z,2.63
2019-02-23T11:22:06.244Z,2.33
2019-02-23T11:24:11.698Z,2.10
2019-02-23T11:26:16.826Z,2.47
2019-02-23T11:28:22.525Z,2.30
2019-02-23T11:30:28.377Z,2.13
2019-02-23T11:32:33.277Z,2.40
2019-02-23T11:34:38.743Z,2.20
2019-02-23T11:36:44.065Z,2.40
2019-02-23T11:38:49.388Z,1.80
2019-02-23T11:40:54.665Z,1.87
2019-02-23T11:42:59.792Z,1.90
2019-02-23T11:45:05.284Z,2.00
2019-02-23T11:47:10.564Z,2.10
2019-02-23T11:49:15.586Z,2.30
2019-02-23T11:51:20.906Z,2.10
2019-02-23T11:53:26.127Z,2.03
2019-02-23T11:55:31.136Z,2.17
2019-02-23T11:57:36.687Z,2.40
2019-02-23T11:59:42.079Z,3.87
2019-02-23T12:01:47.547Z,2.10
2019-02-23T12:03:52.794Z,1.97
2019-02-23T12:05:58.121Z,2.20
2019-02-23T12:08:03.511Z,2.10
2019-02-23T12:10:11.083Z,2.40
2019-02-23T12:12:16.478Z,2.40
2019-02-23T12:14:21.741Z,1.60
2019-02-23T12:16:26.823Z,2.50
2019-02-23T12:18:31.947Z,2.00
2019-02-23T12:20:37.318Z,2.17
2019-02-23T12:22:42.296Z,1.97
2019-02-23T12:24:47.603Z,2.27
2019-02-23T12:26:52.525Z,2.20
2019-02-23T12:28:57.596Z,1.80
2019-02-23T12:31:02.979Z,2.17
2019-02-23T12:33:08.669Z,2.20
2019-02-23T12:35:14.062Z,2.17
2019-02-23T12:37:19.347Z,2.33
2019-02-23T12:39:24.409Z,2.20
2019-02-23T12:41:29.402Z,2.37
2019-02-23T12:43:34.722Z,1.90
2019-02-23T12:45:40.098Z,2.17
2019-02-23T12:47:45.175Z,2.03
2019-02-23T12:49:50.857Z,2.23
2019-02-23T12:51:56.187Z,2.20
2019-02-23T12:54:01.758Z,1.87
2019-02-23T12:56:06.773Z,2.17
2019-02-23T12:58:11.989Z,2.53
2019-02-23T13:00:17.307Z,1.97
2019-02-23T13:02:22.884Z,2.17
2019-02-23T13:04:28.077Z,2.40
2019-02-23T13:06:33.434Z,1.80
2019-02-23T13:09:21.979Z,1.93
2019-02-23T13:11:27.347Z,1.60
2019-02-23T13:14:30.312Z,2.07
2019-02-23T13:17:22.228Z,2.10
2019-02-23T13:20:24.994Z,2.37
2019-02-23T13:22:45.204Z,2.70
2019-02-23T13:25:50.011Z,2.40
2019-02-23T13:28:53.904Z,1.90
2019-02-23T13:31:42.676Z,3.67
2019-02-23T13:34:41.521Z,2.07
2019-02-23T13:37:40.306Z,2.07
2019-02-23T13:40:58.981Z,2.77
2019-02-23T13:43:59.183Z,2.90
2019-02-23T13:46:41.654Z,2.40
2019-02-23T13:49:17.699Z,2.60
2019-02-23T13:52:27.012Z,4.10
2019-02-23T13:55:32.066Z,2.77
2019-02-23T13:58:25.405Z,2.80
2019-02-23T14:01:50.345Z,2.53
2019-02-23T14:04:36.242Z,3.30
2019-02-23T14:07:27.671Z,2.90
2019-02-23T14:10:36.981Z,2.70
2019-02-23T14:13:26.955Z,3.73
2019-02-23T14:16:16.503Z,3.27
2019-02-23T14:19:20.804Z,3.20
2019-02-23T14:22:30.084Z,3.00
2019-02-23T14:25:38.383Z,3.03
2019-02-23T14:28:36.874Z,3.80
2019-02-23T14:31:35.447Z,3.17
2019-02-23T14:34:27.288Z,2.73
2019-02-23T14:37:46.579Z,2.60
2019-02-23T14:41:25.936Z,2.90
2019-02-23T14:44:35.973Z,3.27
2019-02-23T14:47:48.227Z,2.60
2019-02-23T14:51:18.001Z,2.90
2019-02-23T14:53:51.590Z,2.77
2019-02-23T14:57:10.078Z,3.07
2019-02-23T14:59:59.159Z,3.13
2019-02-23T15:03:12.691Z,2.87
2019-02-23T15:06:00.615Z,2.60
2019-02-23T15:09:03.616Z,3.73
2019-02-23T15:11:50.310Z,3.10
2019-02-23T15:14:50.633Z,3.57
2019-02-23T15:17:39.806Z,3.10
2019-02-23T15:20:17.818Z,2.77
2019-02-23T15:23:02.241Z,3.13
2019-02-23T15:26:10.534Z,2.80
2019-02-23T15:28:43.104Z,2.73
2019-02-23T15:31:31.080Z,3.00
2019-02-23T15:34:22.765Z,8.43
2019-02-23T15:37:14.052Z,2.80
2019-02-23T15:40:24.000Z,2.60
2019-02-23T15:43:23.607Z,2.13
2019-02-23T15:46:28.458Z,2.20
2019-02-23T15:49:36.116Z,2.10
2019-02-23T15:51:41.261Z,2.73
2019-02-23T15:53:46.254Z,4.23
2019-02-23T15:55:51.283Z,3.13
2019-02-23T15:57:56.304Z,2.47
2019-02-23T16:00:01.385Z,2.40
2019-02-23T16:02:06.796Z,2.20
2019-02-23T16:04:11.872Z,2.50
2019-02-23T16:06:16.949Z,3.73
2019-02-23T16:08:22.484Z,2.93
2019-02-23T16:10:27.725Z,3.33
2019-02-23T16:12:32.664Z,3.30
2019-02-23T16:14:38.060Z,2.80
2019-02-23T16:16:43.379Z,2.90
2019-02-23T16:18:48.667Z,2.47
2019-02-23T16:20:53.982Z,1.83
2019-02-23T16:22:59.352Z,2.20
2019-02-23T16:25:04.841Z,2.83
2019-02-23T16:27:10.176Z,6.03
2019-02-23T16:29:15.086Z,5.70
2019-02-23T16:31:20.185Z,8.97
2019-02-23T16:33:25.247Z,3.40
2019-02-23T16:35:30.829Z,3.97
2019-02-23T16:37:36.342Z,29.30
2019-02-23T16:39:41.763Z,6.90
2019-02-23T16:41:47.061Z,5.50
2019-02-23T16:43:52.412Z,8.70
2019-02-23T16:45:57.702Z,16.73
2019-02-23T16:48:03.041Z,5.20
2019-02-23T16:50:08.766Z,4.50
2019-02-23T16:52:14.693Z,5.23
2019-02-23T16:54:19.742Z,3.10
2019-02-23T16:56:24.773Z,1.90
2019-02-23T16:58:29.884Z,5.27
2019-02-23T17:00:36.636Z,2.50
2019-02-23T17:02:41.619Z,2.10
2019-02-23T17:04:53.953Z,2.07
2019-02-23T17:06:53.514Z,2.50
2019-02-23T17:08:58.471Z,2.00
2019-02-23T17:11:03.760Z,5.20
2019-02-23T17:13:08.915Z,2.17
2019-02-23T17:15:14.428Z,4.33
2019-02-23T17:17:19.812Z,3.63
2019-02-23T17:19:25.044Z,3.00
2019-02-23T17:21:30.060Z,1.93
2019-02-23T17:23:35.318Z,2.00
2019-02-23T17:25:40.312Z,14.27
2019-02-23T17:27:45.664Z,3.50
2019-02-23T17:29:50.574Z,2.17
2019-02-23T17:31:56.174Z,2.47
2019-02-23T17:34:01.098Z,2.10
2019-02-23T17:36:06.161Z,2.50
2019-02-23T17:38:16.871Z,2.63
2019-02-23T17:40:17.972Z,2.47
2019-02-23T17:42:28.205Z,2.20
2019-02-23T17:44:30.377Z,2.20
2019-02-23T17:46:35.730Z,2.43
2019-02-23T17:48:40.790Z,2.53
2019-02-23T17:50:46.029Z,2.27
2019-02-23T17:52:51.021Z,2.50
2019-02-23T17:54:56.642Z,4.07
2019-02-23T17:57:01.605Z,3.10
2019-02-23T17:59:06.733Z,2.67
2019-02-23T18:01:11.797Z,3.43
2019-02-23T18:03:16.723Z,2.70
2019-02-23T18:05:21.991Z,2.50
2019-02-23T18:07:27.369Z,3.03
2019-02-23T18:09:32.372Z,3.00
2019-02-23T18:11:37.786Z,2.70
2019-02-23T18:13:43.148Z,2.27
2019-02-23T18:15:48.146Z,2.77
2019-02-23T18:17:53.748Z,2.50
2019-02-23T18:19:59.123Z,2.53
2019-02-23T18:22:04.344Z,2.30
2019-02-23T18:24:09.812Z,2.70
2019-02-23T18:26:21.000Z,2.80
2019-02-23T18:28:21.872Z,3.10
2019-02-23T18:30:27.434Z,2.70
2019-02-23T18:32:32.518Z,3.10
2019-02-23T18:34:37.830Z,3.10
2019-02-23T18:36:43.356Z,2.87
2019-02-23T18:38:48.612Z,4.00
2019-02-23T18:40:54.021Z,5.30
2019-02-23T18:42:59.083Z,3.97
2019-02-23T18:45:04.471Z,3.03
2019-02-23T18:47:09.983Z,3.07
2019-02-23T18:49:15.346Z,2.80
2019-02-23T18:51:20.803Z,2.80
2019-02-23T18:53:25.933Z,3.23
2019-02-23T18:55:31.003Z,2.73
2019-02-23T18:57:36.331Z,2.80
2019-02-23T18:59:41.550Z,2.93
2019-02-23T19:01:47.595Z,2.90
2019-02-23T19:03:52.966Z,2.80
2019-02-23T19:05:58.206Z,2.33
2019-02-23T19:08:04.003Z,2.80
2019-02-23T19:10:12.191Z,3.07
2019-02-23T19:12:17.250Z,2.53
2019-02-23T19:14:22.458Z,2.60
2019-02-23T19:16:27.857Z,2.90
2019-02-23T19:18:33.220Z,3.20
2019-02-23T19:20:38.347Z,3.03
2019-02-23T19:22:43.978Z,4.90
2019-02-23T19:24:49.100Z,3.07
2019-02-23T19:26:54.445Z,4.07
2019-02-23T19:28:59.393Z,3.00
2019-02-23T19:31:04.398Z,2.67
2019-02-23T19:33:09.739Z,2.70
2019-02-23T19:35:14.749Z,2.47
2019-02-23T19:37:20.038Z,2.97
2019-02-23T19:39:25.950Z,4.50
2019-02-23T19:41:31.247Z,3.20
2019-02-23T19:43:36.237Z,2.73
2019-02-23T19:45:41.537Z,3.13
2019-02-23T19:47:46.995Z,3.43
2019-02-23T19:49:56.440Z,3.47
2019-02-23T19:52:01.725Z,2.67
2019-02-23T19:54:07.168Z,3.40
2019-02-23T19:56:12.246Z,4.30
2019-02-23T19:58:17.981Z,3.80
2019-02-23T20:00:23.462Z,3.33
2019-02-23T20:02:28.917Z,3.70
2019-02-23T20:04:34.010Z,3.67
2019-02-23T20:06:39.225Z,3.83
2019-02-23T20:08:44.134Z,4.70
2019-02-23T20:10:49.549Z,3.80
2019-02-23T20:12:54.561Z,4.17
2019-02-23T20:14:59.497Z,3.47
2019-02-23T20:17:04.775Z,3.00
2019-02-23T20:19:10.118Z,3.33
2019-02-23T20:21:15.834Z,3.43
2019-02-23T20:23:21.624Z,3.17
2019-02-23T20:25:27.150Z,3.37
2019-02-23T20:27:32.444Z,3.17
2019-02-23T20:29:38.319Z,3.43
2019-02-23T20:31:43.698Z,3.27
2019-02-23T20:33:49.003Z,3.10
2019-02-23T20:35:54.679Z,3.97
2019-02-23T20:38:00.304Z,4.70
2019-02-23T20:40:06.349Z,5.70
2019-02-23T20:42:11.735Z,4.23
2019-02-23T20:44:17.314Z,3.80
2019-02-23T20:46:22.743Z,3.30
2019-02-23T20:48:28.174Z,3.13
2019-02-23T20:50:33.501Z,3.30
2019-02-23T20:52:39.074Z,4.70
2019-02-23T20:54:44.400Z,5.60
2019-02-23T20:56:49.704Z,9.17
2019-02-23T20:58:55.010Z,4.20
2019-02-23T21:00:59.995Z,4.33
2019-02-23T21:03:05.527Z,3.20
2019-02-23T21:05:11.005Z,4.37
2019-02-23T21:07:15.929Z,4.57
2019-02-23T21:09:20.944Z,3.80
2019-02-23T21:11:26.239Z,3.40
2019-02-23T21:13:31.180Z,3.27
2019-02-23T21:15:36.355Z,4.90
2019-02-23T21:17:41.416Z,3.73
2019-02-23T21:19:46.974Z,3.20
2019-02-23T21:21:52.329Z,3.40
2019-02-23T21:23:57.557Z,3.63
2019-02-23T21:26:02.834Z,4.03
2019-02-23T21:28:08.098Z,3.70
2019-02-23T21:30:13.237Z,3.73
2019-02-23T21:32:18.489Z,3.63
2019-02-23T21:34:23.766Z,3.50
2019-02-23T21:36:28.815Z,3.50
2019-02-23T21:38:34.155Z,3.50
2019-02-23T21:40:39.321Z,4.00
2019-02-23T21:42:44.237Z,4.07
2019-02-23T21:44:49.254Z,3.60
2019-02-23T21:46:54.300Z,3.17
2019-02-23T21:48:59.619Z,4.10
2019-02-23T21:51:05.176Z,3.60
2019-02-23T21:53:10.641Z,3.27
2019-02-23T21:55:15.756Z,3.70
2019-02-23T21:57:22.400Z,3.43
2019-02-23T21:59:27.986Z,3.47
2019-02-23T22:01:33.129Z,4.03
2019-02-23T22:03:38.096Z,3.63
2019-02-23T22:05:43.325Z,3.90
2019-02-23T22:07:48.509Z,3.33
2019-02-23T22:09:53.801Z,3.77
2019-02-23T22:11:58.720Z,4.00
2019-02-23T22:14:03.809Z,3.97
2019-02-23T22:16:09.372Z,4.10
2019-02-23T22:18:14.616Z,4.10
2019-02-23T22:20:19.627Z,4.20
2019-02-23T22:22:24.990Z,3.80
2019-02-23T22:24:29.967Z,4.23
2019-02-23T22:26:35.643Z,3.93
2019-02-23T22:28:40.645Z,4.17
2019-02-23T22:30:45.631Z,4.20
2019-02-23T22:32:50.630Z,5.10
2019-02-23T22:34:55.545Z,4.03
2019-02-23T22:37:00.477Z,4.33
2019-02-23T22:39:07.542Z,4.10
2019-02-23T22:41:13.096Z,5.10
2019-02-23T22:43:18.055Z,3.97
2019-02-23T22:45:23.049Z,4.47
2019-02-23T22:47:28.047Z,3.70
2019-02-23T22:49:33.346Z,4.63
2019-02-23T22:51:38.658Z,4.33
2019-02-23T22:53:44.130Z,4.80
2019-02-23T22:55:49.210Z,4.57
2019-02-23T22:57:54.593Z,4.90
2019-02-23T22:59:59.599Z,4.13
2019-02-23T23:02:04.913Z,4.37
2019-02-23T23:04:10.176Z,4.93
2019-02-23T23:06:15.377Z,3.87
2019-02-23T23:08:20.864Z,4.07
2019-02-23T23:10:26.132Z,3.97
2019-02-23T23:12:31.670Z,4.00
2019-02-23T23:14:36.659Z,4.30
2019-02-23T23:16:41.801Z,4.37
2019-02-23T23:18:46.867Z,4.90
2019-02-23T23:20:52.288Z,5.50
2019-02-23T23:22:57.348Z,5.03
2019-02-23T23:25:02.384Z,4.63
2019-02-23T23:27:08.071Z,4.53
2019-02-23T23:29:13.663Z,5.17
2019-02-23T23:31:18.712Z,4.07
2019-02-23T23:33:24.016Z,4.50
2019-02-23T23:35:29.580Z,4.10
2019-02-23T23:37:34.692Z,4.43
2019-02-23T23:39:39.997Z,4.40
2019-02-23T23:41:45.118Z,4.37
2019-02-23T23:43:50.196Z,4.60
2019-02-23T23:45:55.629Z,4.13
2019-02-23T23:48:00.782Z,4.20
2019-02-23T23:50:05.980Z,4.20
2019-02-23T23:52:10.961Z,4.87
2019-02-23T23:54:15.887Z,4.50
2019-02-23T23:56:20.947Z,4.30
2019-02-23T23:58:26.273Z,4.27
